Time;durP1;ratioP1;P1;durP2;ratioP2;P2;SDS_P1;SDS_P2;PMS_P1;PMS_P2;Temp;Humidity;BMP_temperature;BMP_pressure;BME280_temperature;BME280_humidity;BME280_pressure;Samples;Min_cycle;Max_cycle;Signal;HPM_P1;HPM_P2
2022/10/30 00:01:54;;;;;;;7.57;5.47;;;;;;;20.87;69.88;100657.75;5078683;28;20176;-69
2022/10/30 00:04:19;;;;;;;7.53;5.37;;;;;;;20.87;70.14;100654.88;5044379;28;20171;-69
2022/10/30 00:06:44;;;;;;;7.03;5.20;;;;;;;20.86;70.07;100653.25;5034600;28;20202;-69
2022/10/30 00:09:10;;;;;;;9.23;5.93;;;;;;;20.88;69.93;100661.47;5050764;28;20650;-69
2022/10/30 00:11:35;;;;;;;6.50;4.73;;;;;;;20.86;70.30;100656.13;5047511;28;20810;-70
2022/10/30 00:14:01;;;;;;;6.70;5.00;;;;;;;20.87;70.25;100659.81;5045635;28;20227;-69
2022/10/30 00:16:26;;;;;;;6.90;5.40;;;;;;;20.88;70.04;100664.34;5029035;28;20230;-70
2022/10/30 00:18:52;;;;;;;8.50;5.07;;;;;;;20.85;70.08;100657.34;5028491;28;20187;-70
2022/10/30 00:21:17;;;;;;;9.67;4.73;;;;;;;20.87;70.28;100656.97;5073063;28;20492;-69
2022/10/30 00:23:50;;;;;;;6.20;5.00;;;;;;;20.86;70.33;100663.88;5068041;28;20944;-69
2022/10/30 00:26:15;;;;;;;7.77;5.23;;;;;;;20.86;69.98;100664.72;5069670;28;20171;-69
2022/10/30 00:28:41;;;;;;;7.70;5.23;;;;;;;20.86;70.24;100672.50;5029728;28;20973;-69
2022/10/30 00:31:06;;;;;;;7.20;4.77;;;;;;;20.85;70.25;100671.69;5048266;28;20522;-69
2022/10/30 00:33:32;;;;;;;7.20;5.80;;;;;;;20.85;70.08;100665.09;5039827;28;20577;-69
2022/10/30 00:35:57;;;;;;;7.57;5.80;;;;;;;20.84;70.08;100655.69;5033456;28;20183;-69
2022/10/30 00:38:23;;;;;;;8.43;4.97;;;;;;;20.86;70.05;100658.16;5030981;28;20245;-69
2022/10/30 00:40:48;;;;;;;10.13;5.27;;;;;;;20.86;70.33;100658.16;5048271;28;20176;-69
2022/10/30 00:43:37;;;;;;;6.30;4.90;;;;;;;20.85;70.04;100656.50;5067276;28;20183;-69
2022/10/30 00:46:30;;;;;;;7.53;4.83;;;;;;;20.84;69.93;100655.69;5027592;28;20189;-70
2022/10/30 00:48:58;;;;;;;9.57;4.93;;;;;;;20.83;69.99;100645.41;5043780;28;20474;-70
2022/10/30 00:51:23;;;;;;;9.07;5.57;;;;;;;20.83;70.30;100645.41;5039418;28;20425;-70
2022/10/30 00:53:49;;;;;;;7.13;4.73;;;;;;;20.85;70.08;100636.41;5082191;28;20480;-69
2022/10/30 00:56:16;;;;;;;6.23;4.97;;;;;;;20.84;69.98;100635.59;5046199;28;20179;-69
2022/10/30 00:58:43;;;;;;;7.53;4.90;;;;;;;20.85;70.19;100637.25;5048612;28;20187;-69
2022/10/30 01:01:12;;;;;;;6.20;4.67;;;;;;;20.85;69.87;100637.25;5020554;28;20426;-70
2022/10/30 01:03:38;;;;;;;7.80;4.97;;;;;;;20.84;70.18;100635.59;5015298;28;20429;-70
2022/10/30 01:06:05;;;;;;;6.90;4.80;;;;;;;20.84;70.10;100638.47;5089599;28;20440;-69
2022/10/30 01:08:31;;;;;;;6.87;4.87;;;;;;;20.81;69.76;100633.50;5055529;28;20636;-70
2022/10/30 01:10:57;;;;;;;5.77;4.43;;;;;;;20.81;69.96;100639.22;5054159;28;20417;-70
2022/10/30 01:13:22;;;;;;;6.57;4.47;;;;;;;20.83;70.00;100633.91;5055149;28;20387;-69
2022/10/30 01:15:59;;;;;;;6.60;4.80;;;;;;;20.84;70.28;100641.34;5055098;28;20429;-69
2022/10/30 01:18:25;;;;;;;5.30;4.40;;;;;;;20.81;69.87;100633.50;5071284;28;20519;-69
2022/10/30 01:20:56;;;;;;;7.80;4.70;;;;;;;20.81;70.21;100636.38;5089066;28;20485;-69
2022/10/30 01:23:32;;;;;;;7.57;4.97;;;;;;;20.81;70.38;100630.63;5088892;28;20650;-69
2022/10/30 01:25:58;;;;;;;6.60;4.40;;;;;;;20.80;70.30;100634.72;5070973;28;20481;-69
2022/10/30 01:28:32;;;;;;;6.23;4.27;;;;;;;20.81;70.00;100639.22;5088686;28;20414;-69
2022/10/30 01:31:10;;;;;;;8.63;4.40;;;;;;;20.83;70.33;100630.25;5089305;28;20648;-69
2022/10/30 01:33:43;;;;;;;6.90;5.07;;;;;;;20.81;70.35;100639.22;5069858;28;20453;-69
2022/10/30 01:36:22;;;;;;;6.10;4.63;;;;;;;20.81;70.19;100629.78;5087170;28;20420;-69
2022/10/30 01:39:12;;;;;;;7.60;4.57;;;;;;;20.81;70.22;100629.78;5052193;28;20431;-69
2022/10/30 01:41:37;;;;;;;8.70;4.40;;;;;;;20.80;70.01;100633.88;5052659;28;20495;-69
2022/10/30 01:44:06;;;;;;;6.20;4.23;;;;;;;20.79;70.14;100621.59;5054070;28;20401;-70
2022/10/30 01:46:44;;;;;;;5.63;4.27;;;;;;;20.79;70.28;100627.31;5040620;28;20176;-70
2022/10/30 01:49:48;;;;;;;5.80;4.30;;;;;;;20.79;70.82;100627.31;5068722;28;20890;-69
2022/10/30 01:52:38;;;;;;;5.93;4.20;;;;;;;20.79;69.98;100620.75;4987144;28;20426;-69
2022/10/30 01:55:25;;;;;;;7.00;4.63;;;;;;;20.79;70.27;100621.59;4955209;29;20443;-69
2022/10/30 01:57:59;;;;;;;6.63;4.40;;;;;;;20.79;69.86;100623.63;4998351;28;20428;-69
2022/10/30 02:00:37;;;;;;;6.33;3.83;;;;;;;20.79;70.33;100618.72;5024942;28;20424;-74
2022/10/30 02:03:04;;;;;;;7.10;4.33;;;;;;;20.79;70.05;100615.84;5013886;28;20929;-73
2022/10/30 02:05:35;;;;;;;5.43;4.07;;;;;;;20.78;70.32;100607.63;4998265;28;20447;-73
2022/10/30 02:08:00;;;;;;;8.50;4.80;;;;;;;20.78;70.15;100613.38;5015009;28;20948;-74
2022/10/30 02:10:26;;;;;;;6.93;4.63;;;;;;;20.78;69.98;100614.16;5014725;28;20418;-74
2022/10/30 02:12:51;;;;;;;6.03;4.47;;;;;;;20.77;70.70;100606.78;5016687;28;20215;-73
2022/10/30 02:15:17;;;;;;;8.57;4.50;;;;;;;20.79;70.32;100609.28;4994834;28;20200;-74
2022/10/30 02:17:42;;;;;;;6.27;4.37;;;;;;;20.77;70.07;100608.84;4994100;28;20177;-74
2022/10/30 02:20:14;;;;;;;6.40;3.87;;;;;;;20.77;69.83;100606.78;5012498;28;20197;-74
2022/10/30 02:22:40;;;;;;;6.30;4.67;;;;;;;20.77;69.86;100611.72;4994854;28;20653;-73
2022/10/30 02:25:06;;;;;;;5.47;4.07;;;;;;;20.76;70.05;100608.00;4993850;28;20482;-73
2022/10/30 02:27:31;;;;;;;7.50;5.20;;;;;;;20.76;70.06;100605.13;4976712;28;20196;-73
2022/10/30 02:29:59;;;;;;;5.20;4.10;;;;;;;20.75;69.99;100606.34;5009478;28;20162;-73
2022/10/30 02:32:24;;;;;;;5.80;4.10;;;;;;;20.76;70.36;100612.91;5009182;28;20252;-73
2022/10/30 02:34:50;;;;;;;5.77;4.27;;;;;;;20.76;69.88;100605.13;4992977;28;20743;-73
2022/10/30 02:37:15;;;;;;;5.77;4.20;;;;;;;20.76;70.42;100608.00;5008139;28;20188;-73
2022/10/30 02:39:41;;;;;;;9.57;4.67;;;;;;;20.75;70.22;100614.97;5001959;28;20190;-74
2022/10/30 02:42:06;;;;;;;6.70;4.40;;;;;;;20.75;70.12;100609.22;4975149;28;20170;-73
2022/10/30 02:44:32;;;;;;;5.40;4.17;;;;;;;20.76;70.11;100610.88;4974831;28;20182;-73
2022/10/30 02:46:57;;;;;;;6.33;4.10;;;;;;;20.76;70.14;100616.63;4990479;28;20556;-74
2022/10/30 02:49:22;;;;;;;7.87;5.00;;;;;;;20.75;70.09;100612.09;4993952;28;20612;-74
2022/10/30 02:51:48;;;;;;;6.50;4.40;;;;;;;20.75;70.11;100620.69;5029826;28;20184;-73
2022/10/30 02:54:13;;;;;;;6.00;4.30;;;;;;;20.75;69.93;100614.97;5058713;28;20227;-74
2022/10/30 02:56:39;;;;;;;5.93;4.70;;;;;;;20.76;69.94;100610.03;5053334;28;20190;-73
2022/10/30 02:59:05;;;;;;;6.00;4.13;;;;;;;20.76;70.30;100616.63;5036931;28;20757;-74
2022/10/30 03:01:30;;;;;;;5.67;4.40;;;;;;;20.75;69.80;100611.25;5066868;28;20160;-73
2022/10/30 03:03:56;;;;;;;6.50;4.37;;;;;;;20.74;69.93;100621.94;5043358;28;20183;-74
2022/10/30 03:06:21;;;;;;;6.70;3.77;;;;;;;20.74;70.13;100609.59;5053278;28;20201;-73
2022/10/30 03:08:47;;;;;;;5.80;4.20;;;;;;;20.74;70.11;100610.44;5036598;28;20677;-73
2022/10/30 03:11:14;;;;;;;6.53;4.00;;;;;;;20.74;69.77;100613.31;5052989;28;20178;-74
2022/10/30 03:13:39;;;;;;;6.63;4.53;;;;;;;20.73;70.02;100611.63;5019818;28;20227;-73
2022/10/30 03:16:07;;;;;;;5.90;4.30;;;;;;;20.72;70.06;100615.72;5036411;28;20448;-73
2022/10/30 03:18:32;;;;;;;4.97;4.07;;;;;;;20.72;70.36;100621.47;5036524;28;20178;-74
2022/10/30 03:20:59;;;;;;;5.67;4.40;;;;;;;20.73;70.01;100616.56;5053033;28;20656;-74
2022/10/30 03:23:24;;;;;;;6.00;4.37;;;;;;;20.73;70.19;100607.97;5035998;28;20190;-73
2022/10/30 03:25:57;;;;;;;6.60;4.07;;;;;;;20.71;69.91;100611.22;5052430;28;20398;-73
2022/10/30 03:28:22;;;;;;;5.23;3.80;;;;;;;20.71;70.31;100608.34;5034412;28;20198;-74
2022/10/30 03:30:48;;;;;;;5.17;4.13;;;;;;;20.72;70.02;100610.00;5034371;28;20554;-73
2022/10/30 03:33:14;;;;;;;5.83;4.20;;;;;;;20.72;69.97;100606.31;5033985;28;20210;-73
2022/10/30 03:35:39;;;;;;;6.37;4.47;;;;;;;20.69;69.82;100613.66;5050972;28;20175;-74
2022/10/30 03:38:04;;;;;;;4.50;3.60;;;;;;;20.71;70.12;100607.50;5034133;28;20186;-73
2022/10/30 03:40:30;;;;;;;5.63;4.07;;;;;;;20.72;70.00;100620.66;5027162;28;20188;-73
2022/10/30 03:42:55;;;;;;;6.40;4.67;;;;;;;20.70;69.87;100626.78;4999255;28;20536;-73
2022/10/30 03:45:21;;;;;;;5.47;3.80;;;;;;;20.70;70.09;100626.78;5016184;28;20254;-73
2022/10/30 03:47:46;;;;;;;5.47;4.47;;;;;;;20.70;70.13;100620.19;5050441;28;20168;-73
2022/10/30 03:50:11;;;;;;;6.77;4.40;;;;;;;20.70;70.23;100620.19;4999550;28;20180;-73
2022/10/30 03:52:37;;;;;;;4.63;3.53;;;;;;;20.69;70.02;100610.78;5032219;28;20545;-73
2022/10/30 03:55:03;;;;;;;5.07;4.10;;;;;;;20.71;69.84;100611.22;5012706;28;20594;-73
2022/10/30 03:57:28;;;;;;;5.83;3.73;;;;;;;20.71;70.29;100613.25;5029286;28;20740;-73
2022/10/30 03:59:53;;;;;;;5.30;3.70;;;;;;;20.70;70.04;100615.31;5029226;28;20708;-73
2022/10/30 04:02:19;;;;;;;5.83;3.67;;;;;;;20.70;70.15;100615.31;5012185;28;20189;-73
2022/10/30 04:04:44;;;;;;;6.17;4.03;;;;;;;20.71;70.35;100619.81;5016549;28;20172;-74
2022/10/30 04:07:10;;;;;;;4.60;3.37;;;;;;;20.69;70.32;100619.41;5009331;28;20181;-73
2022/10/30 04:09:35;;;;;;;6.13;4.43;;;;;;;20.70;69.73;100612.44;4993075;28;20169;-74
2022/10/30 04:12:00;;;;;;;5.07;3.80;;;;;;;20.70;70.28;100614.47;5010469;28;20173;-73
2022/10/30 04:14:26;;;;;;;4.63;3.60;;;;;;;20.69;69.89;100609.94;5010288;28;20200;-73
2022/10/30 04:16:51;;;;;;;6.97;4.00;;;;;;;20.72;69.91;100615.72;5012106;28;20586;-73
2022/10/30 04:19:17;;;;;;;6.60;4.00;;;;;;;20.68;70.18;100614.84;5027515;28;20519;-73
2022/10/30 04:21:42;;;;;;;4.97;3.50;;;;;;;20.68;69.89;100614.84;5045564;28;20202;-73
2022/10/30 04:24:08;;;;;;;5.67;4.10;;;;;;;20.69;69.86;100618.56;5047149;28;20255;-74
2022/10/30 04:26:34;;;;;;;4.80;3.53;;;;;;;20.70;70.06;100609.56;5014503;28;20271;-74
2022/10/30 04:28:59;;;;;;;4.40;3.50;;;;;;;20.70;69.86;100617.34;5045880;28;20639;-74
2022/10/30 04:31:24;;;;;;;4.07;3.43;;;;;;;20.71;69.58;100608.34;5027502;28;20207;-74
2022/10/30 04:33:50;;;;;;;4.50;3.50;;;;;;;20.69;69.90;100605.03;5012639;28;20207;-74
2022/10/30 04:36:17;;;;;;;4.33;3.53;;;;;;;20.68;69.85;100609.09;5012564;28;20153;-73
2022/10/30 04:38:42;;;;;;;5.87;3.77;;;;;;;20.68;69.99;100606.25;5012340;28;20222;-73
2022/10/30 04:41:07;;;;;;;7.27;4.60;;;;;;;20.68;70.02;100608.31;5028900;28;20434;-73
2022/10/30 04:43:33;;;;;;;4.53;3.23;;;;;;;20.69;70.04;100604.22;5011566;28;20169;-73
2022/10/30 04:45:58;;;;;;;5.10;3.50;;;;;;;20.70;69.63;100606.69;5028681;28;20188;-73
2022/10/30 04:48:24;;;;;;;5.27;3.70;;;;;;;20.68;70.00;100603.38;5012370;28;20180;-74
2022/10/30 04:50:49;;;;;;;4.40;3.27;;;;;;;20.69;69.73;100609.94;5038226;28;20187;-74
2022/10/30 04:53:16;;;;;;;5.73;3.50;;;;;;;20.68;69.80;100614.03;5028056;28;20201;-74
2022/10/30 04:55:43;;;;;;;5.10;3.83;;;;;;;20.68;70.06;100609.09;4999402;28;20210;-74
2022/10/30 04:58:08;;;;;;;5.37;3.60;;;;;;;20.69;70.02;100607.06;5015779;28;20410;-74
2022/10/30 05:00:34;;;;;;;4.50;3.53;;;;;;;20.69;69.59;100610.78;5016102;28;20432;-74
2022/10/30 05:03:00;;;;;;;6.20;3.90;;;;;;;20.67;70.09;100607.47;5021581;28;20257;-73
2022/10/30 05:05:26;;;;;;;3.83;2.77;;;;;;;20.70;69.60;100600.13;5055577;28;20597;-75
2022/10/30 05:07:52;;;;;;;4.70;3.87;;;;;;;20.68;69.77;100597.63;5038512;28;20475;-73
2022/10/30 05:10:17;;;;;;;4.00;3.40;;;;;;;20.69;69.78;100601.34;5055291;28;20932;-74
2022/10/30 05:12:43;;;;;;;4.40;3.10;;;;;;;20.68;69.99;100600.50;5073327;28;20175;-73
2022/10/30 05:15:09;;;;;;;4.60;3.40;;;;;;;20.71;69.53;100590.28;5073544;28;20644;-73
2022/10/30 05:17:35;;;;;;;4.57;4.00;;;;;;;20.68;69.98;100591.09;5055151;28;20500;-74
2022/10/30 05:20:00;;;;;;;5.50;3.50;;;;;;;20.71;69.82;100593.16;5054936;28;20185;-73
2022/10/30 05:22:25;;;;;;;4.63;3.50;;;;;;;20.70;69.48;100600.97;5054949;28;20159;-73
2022/10/30 05:24:51;;;;;;;5.50;3.57;;;;;;;20.70;69.88;100591.50;5072998;28;20171;-73
2022/10/30 05:27:16;;;;;;;4.13;3.30;;;;;;;20.69;69.73;100590.69;5072790;28;20174;-74
2022/10/30 05:29:42;;;;;;;4.10;3.30;;;;;;;20.69;69.97;100587.84;5032691;28;20192;-73
2022/10/30 05:32:07;;;;;;;4.43;3.73;;;;;;;20.70;69.81;100594.38;4997366;28;20168;-73
2022/10/30 05:34:32;;;;;;;4.47;3.40;;;;;;;20.70;69.60;100594.38;4996683;28;20219;-73
2022/10/30 05:36:58;;;;;;;7.07;3.50;;;;;;;20.70;70.06;100600.97;4996485;28;20549;-73
2022/10/30 05:39:23;;;;;;;5.40;3.57;;;;;;;20.68;69.52;100603.38;5028617;28;20526;-73
2022/10/30 05:41:49;;;;;;;4.40;3.23;;;;;;;20.70;69.76;100600.97;5033082;28;20338;-73
2022/10/30 05:44:14;;;;;;;4.23;2.90;;;;;;;20.69;69.50;100605.03;5032593;28;20266;-73
2022/10/30 05:46:41;;;;;;;4.60;3.33;;;;;;;20.70;69.66;100602.97;5034527;28;20465;-73
2022/10/30 05:49:06;;;;;;;4.60;3.47;;;;;;;20.72;69.66;100597.69;5053044;28;20152;-73
2022/10/30 05:51:32;;;;;;;5.60;3.80;;;;;;;20.71;69.92;100596.88;5033504;28;20538;-73
2022/10/30 05:53:57;;;;;;;4.50;3.63;;;;;;;20.71;69.77;100596.03;5072525;28;20230;-74
2022/10/30 05:56:23;;;;;;;5.70;3.70;;;;;;;20.69;69.85;100595.59;5072010;28;20178;-73
2022/10/30 05:58:49;;;;;;;6.20;3.03;;;;;;;20.69;69.62;100593.56;5037895;28;20170;-73
2022/10/30 06:01:14;;;;;;;5.00;3.33;;;;;;;20.70;69.58;100597.25;5038041;28;20186;-73
2022/10/30 06:03:40;;;;;;;4.50;3.10;;;;;;;20.70;69.43;100606.69;5054412;28;20767;-73
2022/10/30 06:06:05;;;;;;;5.37;3.60;;;;;;;20.70;69.56;100602.97;5036998;28;20195;-74
2022/10/30 06:08:31;;;;;;;5.10;3.80;;;;;;;20.69;69.88;100605.03;5034249;28;20172;-73
2022/10/30 06:10:56;;;;;;;4.03;3.37;;;;;;;20.70;69.83;100605.84;5033718;28;20214;-73
2022/10/30 06:13:21;;;;;;;3.83;2.90;;;;;;;20.70;69.56;100606.69;5030467;28;20207;-73
2022/10/30 06:15:47;;;;;;;4.43;3.30;;;;;;;20.70;69.82;100618.16;5014366;28;20168;-73
2022/10/30 06:18:12;;;;;;;4.10;3.10;;;;;;;20.70;69.50;100621.03;4999755;28;20182;-73
2022/10/30 06:20:38;;;;;;;4.50;3.50;;;;;;;20.70;69.57;100623.06;5040498;28;20182;-73
2022/10/30 06:23:07;;;;;;;3.97;3.03;;;;;;;20.72;69.50;100624.34;5018249;28;20183;-73
2022/10/30 06:25:33;;;;;;;3.93;2.93;;;;;;;20.72;69.66;100627.22;4987140;28;20592;-73
2022/10/30 06:27:59;;;;;;;4.43;3.27;;;;;;;20.69;69.35;100624.28;5024906;28;20426;-74
2022/10/30 06:30:25;;;;;;;4.70;3.50;;;;;;;20.70;69.39;100623.91;5009470;28;20799;-73
2022/10/30 06:32:56;;;;;;;4.67;3.30;;;;;;;20.69;69.57;100616.53;5013920;28;20180;-73
2022/10/30 06:35:21;;;;;;;4.63;2.90;;;;;;;20.70;69.64;100621.03;5029713;28;20168;-73
2022/10/30 06:37:47;;;;;;;4.97;3.10;;;;;;;20.71;69.33;100625.56;5035522;28;20473;-73
2022/10/30 06:40:12;;;;;;;4.13;2.70;;;;;;;20.68;69.70;100614.84;5030289;28;20165;-74
2022/10/30 06:42:44;;;;;;;5.53;3.30;;;;;;;20.72;69.57;100621.47;5030266;28;20188;-74
2022/10/30 06:45:11;;;;;;;4.50;3.40;;;;;;;20.72;69.15;100623.53;5043209;28;20207;-73
2022/10/30 06:47:36;;;;;;;4.30;3.57;;;;;;;20.72;69.67;100615.72;5032132;28;20839;-73
2022/10/30 06:50:03;;;;;;;4.03;2.83;;;;;;;20.72;69.64;100618.59;5024126;28;20464;-73
2022/10/30 06:52:29;;;;;;;4.70;3.40;;;;;;;20.73;69.32;100619.44;5024241;28;20576;-74
2022/10/30 06:54:54;;;;;;;3.87;3.20;;;;;;;20.72;69.23;100624.34;4999451;28;20480;-73
2022/10/30 06:57:19;;;;;;;6.17;3.67;;;;;;;20.72;69.71;100623.53;5038586;28;20173;-73
2022/10/30 06:59:45;;;;;;;3.93;2.87;;;;;;;20.71;69.21;100628.44;5013693;28;20180;-73
2022/10/30 07:02:10;;;;;;;3.70;2.90;;;;;;;20.72;69.50;100621.47;5036702;28;20194;-73
2022/10/30 07:04:36;;;;;;;4.07;2.87;;;;;;;20.72;69.32;100620.66;5015674;28;20187;-73
2022/10/30 07:07:02;;;;;;;4.40;3.20;;;;;;;20.73;69.51;100623.13;5038623;28;20188;-73
2022/10/30 07:09:27;;;;;;;4.00;2.97;;;;;;;20.70;69.33;100629.66;5010681;28;20184;-74
2022/10/30 07:11:53;;;;;;;4.40;2.90;;;;;;;20.73;69.71;100622.31;5030082;28;20827;-74
2022/10/30 07:14:18;;;;;;;3.73;3.00;;;;;;;20.72;69.32;100627.22;4998764;28;20200;-73
2022/10/30 07:16:44;;;;;;;4.10;2.90;;;;;;;20.73;69.52;100633.78;5018187;28;20177;-73
2022/10/30 07:19:09;;;;;;;3.50;2.90;;;;;;;20.74;69.42;100633.41;5032404;28;20619;-73
2022/10/30 07:21:35;;;;;;;4.80;3.13;;;;;;;20.72;69.45;100627.22;5022057;28;20183;-73
2022/10/30 07:24:00;;;;;;;3.63;2.70;;;;;;;20.73;69.56;100636.66;5017267;28;20515;-73
2022/10/30 07:26:26;;;;;;;4.93;3.30;;;;;;;20.75;69.48;100643.66;5013354;28;20187;-73
2022/10/30 07:28:51;;;;;;;5.07;3.50;;;;;;;20.77;69.26;100640.41;5011127;28;20176;-73
2022/10/30 07:31:16;;;;;;;4.33;3.07;;;;;;;20.75;68.94;100637.06;5027003;28;20176;-73
2022/10/30 07:33:42;;;;;;;4.07;3.00;;;;;;;20.72;69.15;100635.81;4993134;28;20215;-73
2022/10/30 07:36:07;;;;;;;3.70;3.13;;;;;;;20.75;69.29;100640.78;5016214;28;20175;-73
2022/10/30 07:38:33;;;;;;;5.17;2.90;;;;;;;20.74;68.92;100647.75;5016063;28;20180;-73
2022/10/30 07:40:58;;;;;;;3.77;3.10;;;;;;;20.77;69.20;100640.41;5016000;28;20646;-72
2022/10/30 07:43:24;;;;;;;3.70;2.60;;;;;;;20.76;69.52;100638.72;4999956;28;20651;-73
2022/10/30 07:45:49;;;;;;;3.00;2.57;;;;;;;20.76;69.35;100644.47;5018883;28;20646;-73
2022/10/30 07:48:15;;;;;;;3.17;2.80;;;;;;;20.73;69.13;100646.06;5008178;28;20226;-74
2022/10/30 07:50:40;;;;;;;4.30;3.20;;;;;;;20.77;68.85;100646.97;5015602;28;20175;-73
2022/10/30 07:53:06;;;;;;;5.20;3.23;;;;;;;20.77;69.08;100646.97;5013588;28;20708;-73
2022/10/30 07:55:31;;;;;;;3.50;2.63;;;;;;;20.77;69.20;100646.97;5016306;28;20655;-73
2022/10/30 07:57:57;;;;;;;4.23;3.10;;;;;;;20.76;69.36;100653.91;5001371;28;20191;-73
2022/10/30 08:00:22;;;;;;;5.07;3.00;;;;;;;20.75;69.09;100648.56;5021502;28;20187;-73
2022/10/30 08:02:49;;;;;;;4.00;3.10;;;;;;;20.78;69.14;100642.88;5030539;28;20655;-73
2022/10/30 08:05:14;;;;;;;3.90;3.10;;;;;;;20.77;69.50;100649.00;5036446;28;20204;-73
2022/10/30 08:07:40;;;;;;;3.63;2.60;;;;;;;20.77;69.05;100652.69;5032221;28;20501;-72
2022/10/30 08:10:06;;;;;;;3.97;2.87;;;;;;;20.76;69.17;100656.78;4998779;28;20233;-73
2022/10/30 08:12:32;;;;;;;3.90;3.10;;;;;;;20.75;69.56;100649.41;5031983;28;20184;-73
2022/10/30 08:14:57;;;;;;;4.10;3.10;;;;;;;20.76;69.41;100653.91;5012100;28;20454;-73
2022/10/30 08:17:23;;;;;;;3.83;2.63;;;;;;;20.78;69.30;100657.22;5012061;28;20482;-73
2022/10/30 08:19:48;;;;;;;4.60;2.97;;;;;;;20.77;69.22;100658.44;5004184;28;20176;-73
2022/10/30 08:22:14;;;;;;;4.00;3.07;;;;;;;20.77;69.37;100664.16;5029808;28;20195;-73
2022/10/30 08:24:39;;;;;;;3.87;3.00;;;;;;;20.78;69.36;100659.28;5017742;28;20184;-74
2022/10/30 08:27:05;;;;;;;4.40;3.00;;;;;;;20.76;69.21;100659.66;5016260;28;20183;-73
2022/10/30 08:29:30;;;;;;;3.87;2.70;;;;;;;20.78;69.04;100657.22;4998609;28;20674;-72
2022/10/30 08:31:56;;;;;;;4.20;2.93;;;;;;;20.78;69.34;100653.53;5034333;28;20226;-73
2022/10/30 08:34:22;;;;;;;3.67;3.27;;;;;;;20.78;69.50;100650.66;5015238;28;20200;-73
2022/10/30 08:36:48;;;;;;;4.07;3.40;;;;;;;20.78;69.14;100644.94;5035831;28;20196;-73
2022/10/30 08:39:14;;;;;;;4.67;2.70;;;;;;;20.79;68.95;100647.41;5002770;28;20363;-74
2022/10/30 08:41:40;;;;;;;3.90;3.30;;;;;;;20.81;69.19;100642.09;5025945;28;21227;-73
2022/10/30 08:44:05;;;;;;;3.77;2.80;;;;;;;20.84;69.28;100649.94;5001728;28;20165;-74
2022/10/30 08:46:30;;;;;;;4.03;2.77;;;;;;;20.81;68.81;100644.97;5023141;28;20183;-72
2022/10/30 08:48:56;;;;;;;3.90;2.83;;;;;;;20.80;69.45;100640.44;5008164;28;20199;-73
2022/10/30 08:51:21;;;;;;;3.33;2.40;;;;;;;20.80;69.15;100646.19;5003703;28;20187;-74
2022/10/30 08:53:48;;;;;;;4.80;2.80;;;;;;;20.80;69.30;100646.19;5002428;28;20228;-73
2022/10/30 08:56:14;;;;;;;3.87;2.67;;;;;;;20.82;69.38;100649.50;5017408;28;20655;-74
2022/10/30 08:58:39;;;;;;;4.87;2.80;;;;;;;20.81;69.10;100647.84;5016902;28;20434;-73
2022/10/30 09:01:05;;;;;;;2.97;2.30;;;;;;;20.80;69.11;100645.34;5036172;28;20175;-73
2022/10/30 09:03:30;;;;;;;3.77;2.93;;;;;;;20.82;69.17;100643.75;5034390;28;20203;-73
2022/10/30 09:05:59;;;;;;;3.63;2.60;;;;;;;20.85;68.96;100651.59;5032425;28;20212;-74
2022/10/30 09:08:25;;;;;;;4.10;2.50;;;;;;;20.83;68.79;100653.19;5015965;28;20196;-73
2022/10/30 09:10:57;;;;;;;5.00;3.20;;;;;;;20.81;68.94;100653.59;5017162;28;20431;-73
2022/10/30 09:13:23;;;;;;;3.97;2.87;;;;;;;20.79;68.88;100644.53;5011221;28;20207;-72
2022/10/30 09:15:49;;;;;;;4.00;2.70;;;;;;;20.82;68.97;100652.34;5005111;28;20483;-73
2022/10/30 09:18:14;;;;;;;4.03;2.83;;;;;;;20.81;68.90;100650.72;5017660;28;20431;-73
2022/10/30 09:20:40;;;;;;;4.60;2.70;;;;;;;20.83;69.10;100645.41;4993368;28;20195;-73
2022/10/30 09:23:05;;;;;;;4.67;2.73;;;;;;;20.84;69.05;100647.06;5015268;28;20211;-73
2022/10/30 09:25:30;;;;;;;3.20;2.47;;;;;;;20.83;69.28;100644.59;5025792;28;20192;-73
2022/10/30 09:27:56;;;;;;;3.07;2.37;;;;;;;20.83;69.28;100651.13;5007756;28;20175;-73
2022/10/30 09:30:21;;;;;;;3.43;2.60;;;;;;;20.85;68.99;100645.00;5000671;28;20607;-73
2022/10/30 09:32:57;;;;;;;3.67;2.70;;;;;;;20.83;68.92;100645.41;5001807;28;20706;-73
2022/10/30 09:35:22;;;;;;;4.10;3.10;;;;;;;20.86;69.24;100644.63;4998486;28;20200;-73
2022/10/30 09:37:48;;;;;;;4.03;2.60;;;;;;;20.86;69.03;100644.63;5002098;28;20776;-73
2022/10/30 09:40:23;;;;;;;4.20;2.80;;;;;;;20.85;68.97;100645.84;5033063;28;20418;-73
2022/10/30 09:42:49;;;;;;;3.57;2.63;;;;;;;20.88;69.14;100652.88;5001276;28;20238;-73
2022/10/30 09:45:36;;;;;;;3.50;2.70;;;;;;;20.88;69.32;100653.66;5017492;28;20936;-73
2022/10/30 09:48:31;;;;;;;3.07;2.27;;;;;;;20.88;69.19;100647.94;5014257;28;20695;-73
2022/10/30 09:51:15;;;;;;;3.13;2.50;;;;;;;20.88;69.20;100653.66;5034874;28;20422;-73
2022/10/30 09:54:04;;;;;;;4.70;2.60;;;;;;;20.87;68.92;100652.03;5033981;28;20489;-73
2022/10/30 09:56:35;;;;;;;2.90;2.33;;;;;;;20.87;68.48;100652.03;5003711;28;20810;-73
2022/10/30 09:59:24;;;;;;;4.03;3.17;;;;;;;20.89;69.30;100649.63;5019950;28;20430;-72
2022/10/30 10:02:14;;;;;;;3.37;2.40;;;;;;;20.86;68.84;100650.38;5033308;28;20965;-73
2022/10/30 10:04:43;;;;;;;3.20;2.33;;;;;;;20.91;68.67;100655.81;5035161;28;20415;-74
2022/10/30 10:07:22;;;;;;;3.27;2.30;;;;;;;20.92;69.27;100656.66;5000639;28;20435;-72
2022/10/30 10:09:48;;;;;;;4.03;2.80;;;;;;;20.94;68.95;100657.06;5031994;28;20438;-73
2022/10/30 10:12:38;;;;;;;3.30;2.57;;;;;;;20.90;69.33;100662.78;4986562;28;20477;-73
2022/10/30 10:15:10;;;;;;;3.07;2.23;;;;;;;20.92;68.50;100659.53;5001549;28;20465;-73
2022/10/30 10:17:38;;;;;;;3.10;2.57;;;;;;;20.93;69.19;100658.28;5031439;28;20433;-73
2022/10/30 10:20:04;;;;;;;3.27;2.37;;;;;;;20.93;68.77;100656.22;5027773;28;20434;-73
2022/10/30 10:22:33;;;;;;;2.90;2.20;;;;;;;20.95;68.63;100650.94;5031922;28;20430;-73
2022/10/30 10:24:58;;;;;;;2.93;2.10;;;;;;;20.93;69.08;100653.38;5035620;28;20451;-73
2022/10/30 10:27:39;;;;;;;4.10;2.80;;;;;;;20.93;69.07;100650.50;5000758;28;20434;-73
2022/10/30 10:30:17;;;;;;;3.87;3.00;;;;;;;20.96;68.70;100655.47;5032319;28;20211;-72
2022/10/30 10:33:01;;;;;;;4.20;2.70;;;;;;;20.93;69.11;100652.56;5033370;28;20422;-72
2022/10/30 10:35:38;;;;;;;3.43;2.50;;;;;;;20.95;69.10;100655.84;5031967;28;20477;-72
2022/10/30 10:38:09;;;;;;;3.30;2.60;;;;;;;20.93;69.37;100644.75;5039006;28;20425;-73
2022/10/30 10:40:55;;;;;;;3.50;2.40;;;;;;;20.96;68.52;100643.16;5034045;28;20423;-73
2022/10/30 10:43:57;;;;;;;3.40;2.40;;;;;;;20.97;68.48;100639.91;5032590;28;20419;-73
2022/10/30 10:46:30;;;;;;;3.37;2.60;;;;;;;20.95;68.67;100648.09;5034142;28;20428;-73
2022/10/30 10:49:20;;;;;;;4.23;2.40;;;;;;;20.96;68.81;100643.16;5031531;28;20861;-73
2022/10/30 10:51:53;;;;;;;4.70;2.50;;;;;;;20.98;68.77;100638.66;5034762;28;20419;-73
2022/10/30 10:54:31;;;;;;;2.90;2.30;;;;;;;20.96;68.48;100638.25;5014491;28;20995;-73
2022/10/30 10:56:58;;;;;;;3.37;2.37;;;;;;;20.99;68.55;100633.78;5001965;28;20433;-73
2022/10/30 10:59:39;;;;;;;4.20;2.47;;;;;;;20.99;68.61;100633.78;5017113;28;20450;-73
2022/10/30 11:02:04;;;;;;;3.83;2.57;;;;;;;20.99;68.73;100631.75;5023177;28;20891;-72
2022/10/30 11:04:42;;;;;;;3.90;2.93;;;;;;;21.00;68.39;100633.38;5037574;28;20487;-73
2022/10/30 11:07:25;;;;;;;4.30;2.77;;;;;;;21.00;68.93;100627.66;4999505;28;20197;-73
2022/10/30 11:09:52;;;;;;;3.53;2.47;;;;;;;20.98;68.90;100632.13;5015319;28;20426;-73
2022/10/30 11:12:29;;;;;;;4.03;2.70;;;;;;;21.01;68.93;100637.06;5014804;28;20422;-73
2022/10/30 11:14:56;;;;;;;3.27;2.40;;;;;;;20.98;68.74;100630.06;4999280;28;21075;-73
2022/10/30 11:17:28;;;;;;;3.77;2.60;;;;;;;21.02;68.71;100624.41;5021815;28;20434;-73
2022/10/30 11:20:13;;;;;;;3.50;2.70;;;;;;;21.01;68.44;100617.81;5002839;28;20484;-73
2022/10/30 11:22:39;;;;;;;3.60;2.37;;;;;;;21.02;68.66;100622.31;5016694;28;20454;-73
2022/10/30 11:25:25;;;;;;;4.10;2.50;;;;;;;21.00;68.49;100621.91;5017154;28;20956;-73
2022/10/30 11:27:55;;;;;;;3.83;2.60;;;;;;;21.03;68.58;100623.16;5001175;28;20522;-73
2022/10/30 11:30:23;;;;;;;3.03;2.30;;;;;;;21.02;68.54;100624.41;5036607;28;20430;-73